sensor_id;sensor_type;location;lat;lon;timestamp;temperature;humidity
60287;DHT22;46141;52.382;5.270;2022-09-02T00:00:54;24.40;51.00
60287;DHT22;46141;52.382;5.270;2022-09-02T00:03:20;24.40;51.00
60287;DHT22;46141;52.382;5.270;2022-09-02T00:05:46;24.40;51.00
60287;DHT22;46141;52.382;5.270;2022-09-02T00:08:12;24.40;51.00
60287;DHT22;46141;52.382;5.270;2022-09-02T00:10:40;24.40;51.10
60287;DHT22;46141;52.382;5.270;2022-09-02T00:13:09;24.40;51.10
60287;DHT22;46141;52.382;5.270;2022-09-02T00:15:35;24.40;51.10
60287;DHT22;46141;52.382;5.270;2022-09-02T00:18:01;24.40;51.00
60287;DHT22;46141;52.382;5.270;2022-09-02T00:20:28;24.30;51.00
60287;DHT22;46141;52.382;5.270;2022-09-02T00:22:54;24.30;51.10
60287;DHT22;46141;52.382;5.270;2022-09-02T00:25:20;24.40;51.10
60287;DHT22;46141;52.382;5.270;2022-09-02T00:27:45;24.30;51.10
60287;DHT22;46141;52.382;5.270;2022-09-02T00:30:12;24.30;51.10
60287;DHT22;46141;52.382;5.270;2022-09-02T00:32:38;24.30;51.10
60287;DHT22;46141;52.382;5.270;2022-09-02T00:35:04;24.30;51.10
60287;DHT22;46141;52.382;5.270;2022-09-02T00:37:29;24.20;51.10
60287;DHT22;46141;52.382;5.270;2022-09-02T00:39:55;24.30;51.10
60287;DHT22;46141;52.382;5.270;2022-09-02T00:42:22;24.20;51.20
60287;DHT22;46141;52.382;5.270;2022-09-02T00:44:48;24.30;51.20
60287;DHT22;46141;52.382;5.270;2022-09-02T00:47:14;24.20;51.10
60287;DHT22;46141;52.382;5.270;2022-09-02T00:49:44;24.20;51.10
60287;DHT22;46141;52.382;5.270;2022-09-02T00:52:28;24.20;51.10
60287;DHT22;46141;52.382;5.270;2022-09-02T00:55:07;24.20;51.10
60287;DHT22;46141;52.382;5.270;2022-09-02T00:58:15;24.20;51.10
60287;DHT22;46141;52.382;5.270;2022-09-02T01:00:37;24.20;51.30
60287;DHT22;46141;52.382;5.270;2022-09-02T01:03:08;24.20;51.20
60287;DHT22;46141;52.382;5.270;2022-09-02T01:05:47;24.20;51.50
60287;DHT22;46141;52.382;5.270;2022-09-02T01:08:17;24.10;51.20
60287;DHT22;46141;52.382;5.270;2022-09-02T01:10:42;24.20;51.30
60287;DHT22;46141;52.382;5.270;2022-09-02T01:13:13;24.20;51.30
60287;DHT22;46141;52.382;5.270;2022-09-02T01:15:44;24.10;51.20
60287;DHT22;46141;52.382;5.270;2022-09-02T01:18:14;24.20;51.30
60287;DHT22;46141;52.382;5.270;2022-09-02T01:20:41;24.10;51.30
60287;DHT22;46141;52.382;5.270;2022-09-02T01:23:07;24.10;51.30
60287;DHT22;46141;52.382;5.270;2022-09-02T01:25:34;24.10;51.40
60287;DHT22;46141;52.382;5.270;2022-09-02T01:28:04;24.10;51.30
60287;DHT22;46141;52.382;5.270;2022-09-02T01:30:32;24.00;51.30
60287;DHT22;46141;52.382;5.270;2022-09-02T01:32:58;24.00;51.40
60287;DHT22;46141;52.382;5.270;2022-09-02T01:35:24;24.00;51.40
60287;DHT22;46141;52.382;5.270;2022-09-02T01:37:54;24.00;51.30
60287;DHT22;46141;52.382;5.270;2022-09-02T01:40:20;24.00;51.40
60287;DHT22;46141;52.382;5.270;2022-09-02T01:42:47;24.00;51.40
60287;DHT22;46141;52.382;5.270;2022-09-02T01:45:16;24.00;51.30
60287;DHT22;46141;52.382;5.270;2022-09-02T01:47:41;24.00;51.40
60287;DHT22;46141;52.382;5.270;2022-09-02T01:50:08;24.00;51.40
60287;DHT22;46141;52.382;5.270;2022-09-02T01:52:34;24.00;51.30
60287;DHT22;46141;52.382;5.270;2022-09-02T01:55:00;23.90;51.40
60287;DHT22;46141;52.382;5.270;2022-09-02T01:57:25;23.90;51.40
60287;DHT22;46141;52.382;5.270;2022-09-02T01:59:52;24.00;51.40
60287;DHT22;46141;52.382;5.270;2022-09-02T02:02:19;23.90;51.30
60287;DHT22;46141;52.382;5.270;2022-09-02T02:04:47;23.90;51.40
60287;DHT22;46141;52.382;5.270;2022-09-02T02:07:15;23.90;51.40
60287;DHT22;46141;52.382;5.270;2022-09-02T02:09:42;23.90;51.40
60287;DHT22;46141;52.382;5.270;2022-09-02T02:12:08;23.90;51.40
60287;DHT22;46141;52.382;5.270;2022-09-02T02:14:34;23.90;51.40
60287;DHT22;46141;52.382;5.270;2022-09-02T02:17:00;23.90;51.50
60287;DHT22;46141;52.382;5.270;2022-09-02T02:19:27;23.80;51.40
60287;DHT22;46141;52.382;5.270;2022-09-02T02:21:52;23.90;51.40
60287;DHT22;46141;52.382;5.270;2022-09-02T02:24:18;23.90;51.50
60287;DHT22;46141;52.382;5.270;2022-09-02T02:26:44;23.90;51.50
60287;DHT22;46141;52.382;5.270;2022-09-02T02:29:10;23.80;51.40
60287;DHT22;46141;52.382;5.270;2022-09-02T02:31:36;23.80;51.50
60287;DHT22;46141;52.382;5.270;2022-09-02T02:34:02;23.80;51.50
60287;DHT22;46141;52.382;5.270;2022-09-02T02:36:28;23.80;51.50
60287;DHT22;46141;52.382;5.270;2022-09-02T02:38:54;23.80;51.50
60287;DHT22;46141;52.382;5.270;2022-09-02T02:41:21;23.70;51.40
60287;DHT22;46141;52.382;5.270;2022-09-02T02:43:47;23.80;51.50
60287;DHT22;46141;52.382;5.270;2022-09-02T02:46:13;23.70;51.40
60287;DHT22;46141;52.382;5.270;2022-09-02T02:48:39;23.70;51.40
60287;DHT22;46141;52.382;5.270;2022-09-02T02:51:05;23.70;51.40
60287;DHT22;46141;52.382;5.270;2022-09-02T02:53:33;23.70;51.50
60287;DHT22;46141;52.382;5.270;2022-09-02T02:55:59;23.70;51.50
60287;DHT22;46141;52.382;5.270;2022-09-02T02:58:25;23.70;51.50
60287;DHT22;46141;52.382;5.270;2022-09-02T03:00:51;23.70;51.50
60287;DHT22;46141;52.382;5.270;2022-09-02T03:03:16;23.70;51.40
60287;DHT22;46141;52.382;5.270;2022-09-02T03:05:42;23.70;51.40
60287;DHT22;46141;52.382;5.270;2022-09-02T03:08:09;23.60;51.40
60287;DHT22;46141;52.382;5.270;2022-09-02T03:10:35;23.60;51.40
60287;DHT22;46141;52.382;5.270;2022-09-02T03:13:02;23.60;51.40
60287;DHT22;46141;52.382;5.270;2022-09-02T03:15:28;23.60;51.40
60287;DHT22;46141;52.382;5.270;2022-09-02T03:17:55;23.60;51.50
60287;DHT22;46141;52.382;5.270;2022-09-02T03:20:23;23.60;51.40
60287;DHT22;46141;52.382;5.270;2022-09-02T03:22:52;23.60;51.40
60287;DHT22;46141;52.382;5.270;2022-09-02T03:25:20;23.60;51.40
60287;DHT22;46141;52.382;5.270;2022-09-02T03:27:47;23.60;51.40
60287;DHT22;46141;52.382;5.270;2022-09-02T03:30:25;23.60;51.40
60287;DHT22;46141;52.382;5.270;2022-09-02T03:32:52;23.60;51.40
60287;DHT22;46141;52.382;5.270;2022-09-02T03:35:20;23.60;51.40
60287;DHT22;46141;52.382;5.270;2022-09-02T03:37:47;23.60;51.50
60287;DHT22;46141;52.382;5.270;2022-09-02T03:40:16;23.50;51.40
60287;DHT22;46141;52.382;5.270;2022-09-02T03:42:42;23.50;51.40
60287;DHT22;46141;52.382;5.270;2022-09-02T03:45:10;23.50;51.40
60287;DHT22;46141;52.382;5.270;2022-09-02T03:47:36;23.50;51.50
60287;DHT22;46141;52.382;5.270;2022-09-02T03:50:03;23.50;51.40
60287;DHT22;46141;52.382;5.270;2022-09-02T03:52:29;23.40;51.40
60287;DHT22;46141;52.382;5.270;2022-09-02T03:54:55;23.40;51.40
60287;DHT22;46141;52.382;5.270;2022-09-02T03:57:20;23.40;51.40
60287;DHT22;46141;52.382;5.270;2022-09-02T03:59:46;23.40;51.40
60287;DHT22;46141;52.382;5.270;2022-09-02T04:02:11;23.40;52.00
60287;DHT22;46141;52.382;5.270;2022-09-02T04:04:37;23.40;51.40
60287;DHT22;46141;52.382;5.270;2022-09-02T04:07:03;23.40;51.40
60287;DHT22;46141;52.382;5.270;2022-09-02T04:09:28;23.40;51.40
60287;DHT22;46141;52.382;5.270;2022-09-02T04:11:54;23.40;51.40
60287;DHT22;46141;52.382;5.270;2022-09-02T04:14:19;23.40;51.40
60287;DHT22;46141;52.382;5.270;2022-09-02T04:16:45;23.40;51.40
60287;DHT22;46141;52.382;5.270;2022-09-02T04:19:10;23.40;51.40
60287;DHT22;46141;52.382;5.270;2022-09-02T04:21:38;23.30;51.40
60287;DHT22;46141;52.382;5.270;2022-09-02T04:24:07;23.30;51.30
60287;DHT22;46141;52.382;5.270;2022-09-02T04:26:32;23.30;51.30
60287;DHT22;46141;52.382;5.270;2022-09-02T04:28:58;23.30;51.40
60287;DHT22;46141;52.382;5.270;2022-09-02T04:31:25;23.30;51.40
60287;DHT22;46141;52.382;5.270;2022-09-02T04:33:52;23.30;51.40
60287;DHT22;46141;52.382;5.270;2022-09-02T04:36:19;23.30;51.40
60287;DHT22;46141;52.382;5.270;2022-09-02T04:38:45;23.30;51.40
60287;DHT22;46141;52.382;5.270;2022-09-02T04:41:14;23.30;51.40
60287;DHT22;46141;52.382;5.270;2022-09-02T04:43:40;23.30;51.40
60287;DHT22;46141;52.382;5.270;2022-09-02T04:46:09;23.30;51.40
60287;DHT22;46141;52.382;5.270;2022-09-02T04:48:35;23.30;51.40
60287;DHT22;46141;52.382;5.270;2022-09-02T04:51:11;23.20;51.30
60287;DHT22;46141;52.382;5.270;2022-09-02T04:53:37;23.20;51.40
60287;DHT22;46141;52.382;5.270;2022-09-02T04:56:07;23.20;51.40
60287;DHT22;46141;52.382;5.270;2022-09-02T04:58:34;23.20;51.40
60287;DHT22;46141;52.382;5.270;2022-09-02T05:01:05;23.20;51.50
60287;DHT22;46141;52.382;5.270;2022-09-02T05:03:31;23.20;51.50
60287;DHT22;46141;52.382;5.270;2022-09-02T05:06:02;23.20;51.40
60287;DHT22;46141;52.382;5.270;2022-09-02T05:08:28;23.20;51.50
60287;DHT22;46141;52.382;5.270;2022-09-02T05:10:54;23.10;51.40
60287;DHT22;46141;52.382;5.270;2022-09-02T05:13:19;23.20;51.40
60287;DHT22;46141;52.382;5.270;2022-09-02T05:15:45;23.10;51.40
60287;DHT22;46141;52.382;5.270;2022-09-02T05:18:11;23.10;51.40
60287;DHT22;46141;52.382;5.270;2022-09-02T05:20:40;23.10;51.40
60287;DHT22;46141;52.382;5.270;2022-09-02T05:23:06;23.10;51.50
60287;DHT22;46141;52.382;5.270;2022-09-02T05:25:32;23.10;51.50
60287;DHT22;46141;52.382;5.270;2022-09-02T05:27:57;23.10;51.40
60287;DHT22;46141;52.382;5.270;2022-09-02T05:30:23;23.10;51.40
60287;DHT22;46141;52.382;5.270;2022-09-02T05:32:48;23.10;51.40
60287;DHT22;46141;52.382;5.270;2022-09-02T05:35:14;23.10;51.40
60287;DHT22;46141;52.382;5.270;2022-09-02T05:37:39;23.10;51.40
60287;DHT22;46141;52.382;5.270;2022-09-02T05:40:05;23.10;51.40
60287;DHT22;46141;52.382;5.270;2022-09-02T05:42:32;23.10;51.40
60287;DHT22;46141;52.382;5.270;2022-09-02T05:44:57;23.10;51.40
60287;DHT22;46141;52.382;5.270;2022-09-02T05:47:23;23.10;51.40
60287;DHT22;46141;52.382;5.270;2022-09-02T05:49:48;23.10;51.70
60287;DHT22;46141;52.382;5.270;2022-09-02T05:52:14;23.10;51.50
60287;DHT22;46141;52.382;5.270;2022-09-02T05:54:40;23.10;51.60
60287;DHT22;46141;52.382;5.270;2022-09-02T05:57:12;23.10;52.20
60287;DHT22;46141;52.382;5.270;2022-09-02T05:59:40;23.10;51.50
60287;DHT22;46141;52.382;5.270;2022-09-02T06:02:11;23.10;51.60
60287;DHT22;46141;52.382;5.270;2022-09-02T06:04:43;23.10;51.60
60287;DHT22;46141;52.382;5.270;2022-09-02T06:07:09;23.10;51.60
60287;DHT22;46141;52.382;5.270;2022-09-02T06:09:35;23.10;51.60
60287;DHT22;46141;52.382;5.270;2022-09-02T06:12:01;23.10;51.70
60287;DHT22;46141;52.382;5.270;2022-09-02T06:14:27;23.10;51.70
60287;DHT22;46141;52.382;5.270;2022-09-02T06:16:54;23.10;51.70
60287;DHT22;46141;52.382;5.270;2022-09-02T06:19:21;23.10;51.60
60287;DHT22;46141;52.382;5.270;2022-09-02T06:21:48;23.10;51.70
60287;DHT22;46141;52.382;5.270;2022-09-02T06:24:13;23.00;51.60
60287;DHT22;46141;52.382;5.270;2022-09-02T06:26:40;23.10;51.70
60287;DHT22;46141;52.382;5.270;2022-09-02T06:29:07;23.10;51.70
60287;DHT22;46141;52.382;5.270;2022-09-02T06:31:33;23.10;51.70
60287;DHT22;46141;52.382;5.270;2022-09-02T06:34:00;23.10;51.70
60287;DHT22;46141;52.382;5.270;2022-09-02T06:36:28;23.10;51.70
60287;DHT22;46141;52.382;5.270;2022-09-02T06:38:56;23.10;52.40
60287;DHT22;46141;52.382;5.270;2022-09-02T06:41:26;23.10;51.70
60287;DHT22;46141;52.382;5.270;2022-09-02T06:43:55;23.10;51.80
60287;DHT22;46141;52.382;5.270;2022-09-02T06:46:23;23.10;51.90
60287;DHT22;46141;52.382;5.270;2022-09-02T06:48:49;23.10;51.90
60287;DHT22;46141;52.382;5.270;2022-09-02T06:51:17;23.10;51.80
60287;DHT22;46141;52.382;5.270;2022-09-02T06:53:42;23.10;51.90
60287;DHT22;46141;52.382;5.270;2022-09-02T06:56:08;23.10;51.80
60287;DHT22;46141;52.382;5.270;2022-09-02T06:58:33;23.10;52.00
60287;DHT22;46141;52.382;5.270;2022-09-02T07:00:59;23.20;52.00
60287;DHT22;46141;52.382;5.270;2022-09-02T07:03:24;23.10;52.60
60287;DHT22;46141;52.382;5.270;2022-09-02T07:06:08;23.10;52.00
60287;DHT22;46141;52.382;5.270;2022-09-02T07:08:36;23.20;52.10
60287;DHT22;46141;52.382;5.270;2022-09-02T07:11:02;23.20;52.10
60287;DHT22;46141;52.382;5.270;2022-09-02T07:13:28;23.20;52.10
60287;DHT22;46141;52.382;5.270;2022-09-02T07:15:53;23.10;52.00
60287;DHT22;46141;52.382;5.270;2022-09-02T07:18:19;23.10;52.00
60287;DHT22;46141;52.382;5.270;2022-09-02T07:20:46;23.10;52.20
60287;DHT22;46141;52.382;5.270;2022-09-02T07:23:11;23.10;52.20
60287;DHT22;46141;52.382;5.270;2022-09-02T07:25:38;23.10;52.20
60287;DHT22;46141;52.382;5.270;2022-09-02T07:28:03;23.10;52.20
60287;DHT22;46141;52.382;5.270;2022-09-02T07:30:29;23.20;52.40
60287;DHT22;46141;52.382;5.270;2022-09-02T07:32:54;23.20;52.40
60287;DHT22;46141;52.382;5.270;2022-09-02T07:35:20;23.20;52.40
60287;DHT22;46141;52.382;5.270;2022-09-02T07:37:45;23.20;52.40
60287;DHT22;46141;52.382;5.270;2022-09-02T07:40:11;23.30;52.40
60287;DHT22;46141;52.382;5.270;2022-09-02T07:42:36;23.30;52.50
60287;DHT22;46141;52.382;5.270;2022-09-02T07:45:02;23.30;52.40
60287;DHT22;46141;52.382;5.270;2022-09-02T07:47:28;23.30;52.40
60287;DHT22;46141;52.382;5.270;2022-09-02T07:49:53;23.30;52.30
60287;DHT22;46141;52.382;5.270;2022-09-02T07:52:19;23.30;52.30
60287;DHT22;46141;52.382;5.270;2022-09-02T07:54:45;23.30;52.30
60287;DHT22;46141;52.382;5.270;2022-09-02T07:57:10;23.30;52.40
60287;DHT22;46141;52.382;5.270;2022-09-02T07:59:36;23.30;52.40
60287;DHT22;46141;52.382;5.270;2022-09-02T08:02:01;23.40;52.40
60287;DHT22;46141;52.382;5.270;2022-09-02T08:04:27;23.40;52.50
60287;DHT22;46141;52.382;5.270;2022-09-02T08:06:54;23.40;52.50
60287;DHT22;46141;52.382;5.270;2022-09-02T08:09:21;23.40;52.60
60287;DHT22;46141;52.382;5.270;2022-09-02T08:11:49;23.40;52.50
60287;DHT22;46141;52.382;5.270;2022-09-02T08:14:19;23.40;52.50
60287;DHT22;46141;52.382;5.270;2022-09-02T08:16:46;23.40;52.60
60287;DHT22;46141;52.382;5.270;2022-09-02T08:19:13;23.40;52.70
60287;DHT22;46141;52.382;5.270;2022-09-02T08:21:38;23.40;52.70
60287;DHT22;46141;52.382;5.270;2022-09-02T08:24:04;23.40;52.70
60287;DHT22;46141;52.382;5.270;2022-09-02T08:26:31;23.50;52.70
60287;DHT22;46141;52.382;5.270;2022-09-02T08:28:57;23.50;52.90
60287;DHT22;46141;52.382;5.270;2022-09-02T08:31:23;23.50;52.90
60287;DHT22;46141;52.382;5.270;2022-09-02T08:33:48;23.50;53.50
60287;DHT22;46141;52.382;5.270;2022-09-02T08:36:14;23.50;53.00
60287;DHT22;46141;52.382;5.270;2022-09-02T08:38:41;23.60;53.00
60287;DHT22;46141;52.382;5.270;2022-09-02T08:41:38;23.60;53.10
60287;DHT22;46141;52.382;5.270;2022-09-02T08:44:08;23.60;53.10
60287;DHT22;46141;52.382;5.270;2022-09-02T08:46:34;23.60;53.10
60287;DHT22;46141;52.382;5.270;2022-09-02T08:49:07;23.60;53.20
60287;DHT22;46141;52.382;5.270;2022-09-02T08:51:40;23.60;53.20
60287;DHT22;46141;52.382;5.270;2022-09-02T08:54:35;23.60;53.10
60287;DHT22;46141;52.382;5.270;2022-09-02T08:57:02;23.70;53.20
60287;DHT22;46141;52.382;5.270;2022-09-02T08:59:29;23.70;53.30
60287;DHT22;46141;52.382;5.270;2022-09-02T09:02:08;23.70;53.30
60287;DHT22;46141;52.382;5.270;2022-09-02T09:04:57;23.70;53.40
60287;DHT22;46141;52.382;5.270;2022-09-02T09:13:13;23.80;53.40
60287;DHT22;46141;52.382;5.270;2022-09-02T09:16:00;23.80;53.50
60287;DHT22;46141;52.382;5.270;2022-09-02T09:18:38;23.80;53.50
60287;DHT22;46141;52.382;5.270;2022-09-02T09:21:05;23.80;53.50
60287;DHT22;46141;52.382;5.270;2022-09-02T09:23:33;23.80;53.40
60287;DHT22;46141;52.382;5.270;2022-09-02T09:26:12;23.80;53.40
60287;DHT22;46141;52.382;5.270;2022-09-02T09:28:46;23.80;53.50
60287;DHT22;46141;52.382;5.270;2022-09-02T09:31:21;23.90;53.50
60287;DHT22;46141;52.382;5.270;2022-09-02T09:34:05;23.90;53.50
60287;DHT22;46141;52.382;5.270;2022-09-02T09:41:52;24.00;53.60
60287;DHT22;46141;52.382;5.270;2022-09-02T09:44:41;24.00;53.50
60287;DHT22;46141;52.382;5.270;2022-09-02T09:47:19;24.00;53.60
60287;DHT22;46141;52.382;5.270;2022-09-02T09:49:48;24.00;53.60
60287;DHT22;46141;52.382;5.270;2022-09-02T09:57:36;24.10;53.70
60287;DHT22;46141;52.382;5.270;2022-09-02T10:00:12;24.10;54.00
60287;DHT22;46141;52.382;5.270;2022-09-02T10:02:50;24.10;53.80
60287;DHT22;46141;52.382;5.270;2022-09-02T10:05:38;24.10;53.80
60287;DHT22;46141;52.382;5.270;2022-09-02T10:10:58;24.20;53.60
60287;DHT22;46141;52.382;5.270;2022-09-02T10:13:35;24.20;53.80
60287;DHT22;46141;52.382;5.270;2022-09-02T10:18:48;24.20;54.00
60287;DHT22;46141;52.382;5.270;2022-09-02T10:21:37;24.30;54.00
60287;DHT22;46141;52.382;5.270;2022-09-02T10:27:03;24.30;54.00
60287;DHT22;46141;52.382;5.270;2022-09-02T10:30:06;24.30;54.00
60287;DHT22;46141;52.382;5.270;2022-09-02T10:35:41;24.40;54.20
60287;DHT22;46141;52.382;5.270;2022-09-02T10:38:28;24.40;54.30
60287;DHT22;46141;52.382;5.270;2022-09-02T10:41:43;24.40;54.30
60287;DHT22;46141;52.382;5.270;2022-09-02T10:49:30;24.40;54.50
60287;DHT22;46141;52.382;5.270;2022-09-02T10:55:05;24.50;54.30
60287;DHT22;46141;52.382;5.270;2022-09-02T10:57:48;24.50;54.30
60287;DHT22;46141;52.382;5.270;2022-09-02T11:00:18;24.50;54.20
60287;DHT22;46141;52.382;5.270;2022-09-02T11:02:52;24.60;54.20
60287;DHT22;46141;52.382;5.270;2022-09-02T11:05:51;24.60;54.00
60287;DHT22;46141;52.382;5.270;2022-09-02T11:13:52;24.70;53.90
60287;DHT22;46141;52.382;5.270;2022-09-02T11:16:28;24.60;53.80
60287;DHT22;46141;52.382;5.270;2022-09-02T11:19:08;24.60;53.80
60287;DHT22;46141;52.382;5.270;2022-09-02T11:21:59;24.70;53.80
60287;DHT22;46141;52.382;5.270;2022-09-02T11:24:36;24.70;53.70
60287;DHT22;46141;52.382;5.270;2022-09-02T11:32:17;24.80;53.70
60287;DHT22;46141;52.382;5.270;2022-09-02T11:34:54;24.80;53.50
60287;DHT22;46141;52.382;5.270;2022-09-02T11:40:07;24.90;53.60
60287;DHT22;46141;52.382;5.270;2022-09-02T11:45:37;24.90;53.50
60287;DHT22;46141;52.382;5.270;2022-09-02T11:51:02;25.00;53.40
60287;DHT22;46141;52.382;5.270;2022-09-02T11:53:41;25.00;53.30
60287;DHT22;46141;52.382;5.270;2022-09-02T11:56:15;25.00;53.30
60287;DHT22;46141;52.382;5.270;2022-09-02T11:58:48;25.10;53.30
60287;DHT22;46141;52.382;5.270;2022-09-02T12:06:20;25.20;53.20
60287;DHT22;46141;52.382;5.270;2022-09-02T12:11:37;25.20;53.20
60287;DHT22;46141;52.382;5.270;2022-09-02T12:14:05;25.20;53.20
60287;DHT22;46141;52.382;5.270;2022-09-02T12:17:06;25.30;53.20
60287;DHT22;46141;52.382;5.270;2022-09-02T12:19:42;25.30;53.20
60287;DHT22;46141;52.382;5.270;2022-09-02T12:24:56;25.30;53.20
60287;DHT22;46141;52.382;5.270;2022-09-02T12:27:36;25.40;53.30
60287;DHT22;46141;52.382;5.270;2022-09-02T12:30:08;25.40;53.30
60287;DHT22;46141;52.382;5.270;2022-09-02T12:35:49;25.30;53.40
60287;DHT22;46141;52.382;5.270;2022-09-02T12:38:24;25.30;53.60
60287;DHT22;46141;52.382;5.270;2022-09-02T12:40:55;25.40;53.40
60287;DHT22;46141;52.382;5.270;2022-09-02T12:47:04;25.40;53.20
60287;DHT22;46141;52.382;5.270;2022-09-02T12:50:21;25.50;53.20
60287;DHT22;46141;52.382;5.270;2022-09-02T12:52:43;25.50;53.70
60287;DHT22;46141;52.382;5.270;2022-09-02T12:55:12;25.50;53.10
60287;DHT22;46141;52.382;5.270;2022-09-02T12:57:46;25.50;53.00
60287;DHT22;46141;52.382;5.270;2022-09-02T13:00:16;25.50;52.90
